sensor_id;sensor_type;location;lat;lon;timestamp;temperature;humidity
72814;DHT22;60945;48.516;-2.768;2023-03-30T00:01:29;11.80;85.50
72814;DHT22;60945;48.516;-2.768;2023-03-30T00:03:54;11.80;85.00
72814;DHT22;60945;48.516;-2.768;2023-03-30T00:06:20;11.80;85.00
72814;DHT22;60945;48.516;-2.768;2023-03-30T00:08:48;11.90;84.30
72814;DHT22;60945;48.516;-2.768;2023-03-30T00:11:14;11.80;84.30
72814;DHT22;60945;48.516;-2.768;2023-03-30T00:13:42;11.80;84.50
72814;DHT22;60945;48.516;-2.768;2023-03-30T00:16:11;11.80;83.80
72814;DHT22;60945;48.516;-2.768;2023-03-30T00:18:39;11.80;84.20
72814;DHT22;60945;48.516;-2.768;2023-03-30T00:21:07;11.70;84.40
72814;DHT22;60945;48.516;-2.768;2023-03-30T00:23:34;11.70;84.50
72814;DHT22;60945;48.516;-2.768;2023-03-30T00:26:00;11.70;84.20
72814;DHT22;60945;48.516;-2.768;2023-03-30T00:28:26;11.70;84.30
72814;DHT22;60945;48.516;-2.768;2023-03-30T00:30:55;11.70;83.80
72814;DHT22;60945;48.516;-2.768;2023-03-30T00:33:21;11.70;84.00
72814;DHT22;60945;48.516;-2.768;2023-03-30T00:35:51;11.70;83.10
72814;DHT22;60945;48.516;-2.768;2023-03-30T00:38:17;11.70;83.50
72814;DHT22;60945;48.516;-2.768;2023-03-30T00:40:51;11.60;84.00
72814;DHT22;60945;48.516;-2.768;2023-03-30T00:43:17;11.50;84.30
72814;DHT22;60945;48.516;-2.768;2023-03-30T00:45:42;11.50;84.10
72814;DHT22;60945;48.516;-2.768;2023-03-30T00:48:08;11.50;83.90
72814;DHT22;60945;48.516;-2.768;2023-03-30T00:50:39;11.60;83.80
72814;DHT22;60945;48.516;-2.768;2023-03-30T00:53:19;11.50;83.70
72814;DHT22;60945;48.516;-2.768;2023-03-30T00:55:48;11.50;83.60
72814;DHT22;60945;48.516;-2.768;2023-03-30T00:58:16;11.50;83.10
72814;DHT22;60945;48.516;-2.768;2023-03-30T01:00:43;11.50;83.30
72814;DHT22;60945;48.516;-2.768;2023-03-30T01:03:30;11.50;83.40
72814;DHT22;60945;48.516;-2.768;2023-03-30T01:05:58;11.50;83.40
72814;DHT22;60945;48.516;-2.768;2023-03-30T01:08:27;11.60;82.80
72814;DHT22;60945;48.516;-2.768;2023-03-30T01:10:57;11.50;83.30
72814;DHT22;60945;48.516;-2.768;2023-03-30T01:13:29;11.40;83.50
72814;DHT22;60945;48.516;-2.768;2023-03-30T01:16:22;11.40;83.80
72814;DHT22;60945;48.516;-2.768;2023-03-30T01:42:26;11.50;84.70
72814;DHT22;60945;48.516;-2.768;2023-03-30T01:48:06;11.40;85.20
72814;DHT22;60945;48.516;-2.768;2023-03-30T01:50:56;11.40;85.40
72814;DHT22;60945;48.516;-2.768;2023-03-30T01:53:50;11.40;85.20
72814;DHT22;60945;48.516;-2.768;2023-03-30T01:56:58;11.30;85.30
72814;DHT22;60945;48.516;-2.768;2023-03-30T01:59:33;11.40;85.30
72814;DHT22;60945;48.516;-2.768;2023-03-30T02:02:03;11.50;84.90
72814;DHT22;60945;48.516;-2.768;2023-03-30T02:04:34;11.70;83.50
72814;DHT22;60945;48.516;-2.768;2023-03-30T02:07:10;11.60;83.20
72814;DHT22;60945;48.516;-2.768;2023-03-30T02:09:39;11.60;83.70
72814;DHT22;60945;48.516;-2.768;2023-03-30T02:12:08;11.50;83.80
72814;DHT22;60945;48.516;-2.768;2023-03-30T02:14:37;11.50;84.10
72814;DHT22;60945;48.516;-2.768;2023-03-30T02:17:16;11.40;84.30
72814;DHT22;60945;48.516;-2.768;2023-03-30T02:19:43;11.40;84.60
72814;DHT22;60945;48.516;-2.768;2023-03-30T02:22:14;11.40;84.50
72814;DHT22;60945;48.516;-2.768;2023-03-30T02:24:41;11.40;84.10
72814;DHT22;60945;48.516;-2.768;2023-03-30T02:27:08;11.40;84.10
72814;DHT22;60945;48.516;-2.768;2023-03-30T02:29:36;11.30;84.50
72814;DHT22;60945;48.516;-2.768;2023-03-30T02:32:04;11.30;84.30
72814;DHT22;60945;48.516;-2.768;2023-03-30T02:54:03;11.20;83.70
72814;DHT22;60945;48.516;-2.768;2023-03-30T02:59:26;11.20;83.80
72814;DHT22;60945;48.516;-2.768;2023-03-30T03:02:57;11.20;83.50
72814;DHT22;60945;48.516;-2.768;2023-03-30T03:04:52;11.10;83.50
72814;DHT22;60945;48.516;-2.768;2023-03-30T03:07:19;11.10;83.70
72814;DHT22;60945;48.516;-2.768;2023-03-30T03:09:45;11.10;83.50
72814;DHT22;60945;48.516;-2.768;2023-03-30T03:12:11;11.10;83.40
72814;DHT22;60945;48.516;-2.768;2023-03-30T03:14:40;11.10;83.50
72814;DHT22;60945;48.516;-2.768;2023-03-30T03:17:05;11.10;83.60
72814;DHT22;60945;48.516;-2.768;2023-03-30T03:19:31;11.10;83.40
72814;DHT22;60945;48.516;-2.768;2023-03-30T03:21:57;11.10;83.10
72814;DHT22;60945;48.516;-2.768;2023-03-30T03:24:22;11.10;83.10
72814;DHT22;60945;48.516;-2.768;2023-03-30T03:26:48;11.10;83.40
72814;DHT22;60945;48.516;-2.768;2023-03-30T03:29:14;11.10;83.50
72814;DHT22;60945;48.516;-2.768;2023-03-30T03:31:40;11.20;82.80
72814;DHT22;60945;48.516;-2.768;2023-03-30T03:34:05;11.20;82.90
72814;DHT22;60945;48.516;-2.768;2023-03-30T03:36:31;11.20;83.00
72814;DHT22;60945;48.516;-2.768;2023-03-30T03:38:57;11.20;82.80
72814;DHT22;60945;48.516;-2.768;2023-03-30T03:41:23;11.30;82.90
72814;DHT22;60945;48.516;-2.768;2023-03-30T03:43:48;11.40;82.50
72814;DHT22;60945;48.516;-2.768;2023-03-30T03:46:17;11.40;82.50
72814;DHT22;60945;48.516;-2.768;2023-03-30T03:48:42;11.40;82.40
72814;DHT22;60945;48.516;-2.768;2023-03-30T03:51:08;11.40;82.00
72814;DHT22;60945;48.516;-2.768;2023-03-30T03:53:34;11.30;82.70
72814;DHT22;60945;48.516;-2.768;2023-03-30T03:56:00;11.30;82.90
72814;DHT22;60945;48.516;-2.768;2023-03-30T03:58:26;11.30;82.70
72814;DHT22;60945;48.516;-2.768;2023-03-30T04:00:58;11.40;82.40
72814;DHT22;60945;48.516;-2.768;2023-03-30T04:03:24;11.30;82.60
72814;DHT22;60945;48.516;-2.768;2023-03-30T04:05:50;11.20;82.90
72814;DHT22;60945;48.516;-2.768;2023-03-30T04:08:15;11.20;82.70
72814;DHT22;60945;48.516;-2.768;2023-03-30T04:10:42;11.20;83.00
72814;DHT22;60945;48.516;-2.768;2023-03-30T04:13:11;11.10;83.10
72814;DHT22;60945;48.516;-2.768;2023-03-30T04:15:36;11.10;83.20
72814;DHT22;60945;48.516;-2.768;2023-03-30T04:18:02;11.10;83.50
72814;DHT22;60945;48.516;-2.768;2023-03-30T04:20:29;11.10;83.50
72814;DHT22;60945;48.516;-2.768;2023-03-30T04:22:55;11.10;83.40
72814;DHT22;60945;48.516;-2.768;2023-03-30T04:25:23;11.10;83.70
72814;DHT22;60945;48.516;-2.768;2023-03-30T04:27:51;11.00;83.80
72814;DHT22;60945;48.516;-2.768;2023-03-30T04:30:18;11.00;84.30
72814;DHT22;60945;48.516;-2.768;2023-03-30T04:32:44;11.00;84.30
72814;DHT22;60945;48.516;-2.768;2023-03-30T04:35:12;11.00;84.50
72814;DHT22;60945;48.516;-2.768;2023-03-30T04:37:39;11.10;84.50
72814;DHT22;60945;48.516;-2.768;2023-03-30T04:40:07;11.20;84.00
72814;DHT22;60945;48.516;-2.768;2023-03-30T04:42:34;11.20;84.00
72814;DHT22;60945;48.516;-2.768;2023-03-30T04:45:08;11.20;83.70
72814;DHT22;60945;48.516;-2.768;2023-03-30T04:47:36;11.20;83.20
72814;DHT22;60945;48.516;-2.768;2023-03-30T04:50:02;11.30;82.70
72814;DHT22;60945;48.516;-2.768;2023-03-30T04:52:28;11.20;82.80
72814;DHT22;60945;48.516;-2.768;2023-03-30T04:54:54;11.10;83.30
72814;DHT22;60945;48.516;-2.768;2023-03-30T04:57:20;11.10;83.60
72814;DHT22;60945;48.516;-2.768;2023-03-30T04:59:45;11.10;83.70
72814;DHT22;60945;48.516;-2.768;2023-03-30T05:02:12;11.10;83.70
72814;DHT22;60945;48.516;-2.768;2023-03-30T05:04:38;11.00;83.80
72814;DHT22;60945;48.516;-2.768;2023-03-30T05:07:05;11.00;83.80
72814;DHT22;60945;48.516;-2.768;2023-03-30T05:09:31;11.00;83.70
72814;DHT22;60945;48.516;-2.768;2023-03-30T05:11:57;11.00;83.80
72814;DHT22;60945;48.516;-2.768;2023-03-30T05:14:23;11.00;83.70
72814;DHT22;60945;48.516;-2.768;2023-03-30T05:16:48;11.00;83.80
72814;DHT22;60945;48.516;-2.768;2023-03-30T05:19:14;11.00;83.70
72814;DHT22;60945;48.516;-2.768;2023-03-30T05:21:40;11.00;83.50
72814;DHT22;60945;48.516;-2.768;2023-03-30T05:24:06;11.10;83.30
72814;DHT22;60945;48.516;-2.768;2023-03-30T05:26:32;11.10;83.10
72814;DHT22;60945;48.516;-2.768;2023-03-30T05:28:58;11.00;83.20
72814;DHT22;60945;48.516;-2.768;2023-03-30T05:31:23;11.00;83.40
72814;DHT22;60945;48.516;-2.768;2023-03-30T05:33:49;11.00;83.30
72814;DHT22;60945;48.516;-2.768;2023-03-30T05:36:16;11.00;83.60
72814;DHT22;60945;48.516;-2.768;2023-03-30T05:38:42;11.00;84.00
72814;DHT22;60945;48.516;-2.768;2023-03-30T05:41:08;11.00;83.90
72814;DHT22;60945;48.516;-2.768;2023-03-30T05:43:34;11.00;83.90
72814;DHT22;60945;48.516;-2.768;2023-03-30T05:46:00;11.00;84.10
72814;DHT22;60945;48.516;-2.768;2023-03-30T05:48:27;10.90;84.30
72814;DHT22;60945;48.516;-2.768;2023-03-30T05:50:53;10.90;84.60
72814;DHT22;60945;48.516;-2.768;2023-03-30T05:53:18;11.00;84.20
72814;DHT22;60945;48.516;-2.768;2023-03-30T05:55:48;11.00;84.20
72814;DHT22;60945;48.516;-2.768;2023-03-30T05:58:14;11.00;84.10
72814;DHT22;60945;48.516;-2.768;2023-03-30T06:00:41;11.00;84.10
72814;DHT22;60945;48.516;-2.768;2023-03-30T06:03:08;11.20;83.30
72814;DHT22;60945;48.516;-2.768;2023-03-30T06:05:35;11.20;83.10
72814;DHT22;60945;48.516;-2.768;2023-03-30T06:08:04;11.30;82.90
72814;DHT22;60945;48.516;-2.768;2023-03-30T06:10:33;11.30;82.80
72814;DHT22;60945;48.516;-2.768;2023-03-30T06:12:59;11.30;82.80
72814;DHT22;60945;48.516;-2.768;2023-03-30T06:15:25;11.30;83.10
72814;DHT22;60945;48.516;-2.768;2023-03-30T06:17:51;11.40;82.70
72814;DHT22;60945;48.516;-2.768;2023-03-30T06:20:17;11.50;82.90
72814;DHT22;60945;48.516;-2.768;2023-03-30T06:22:46;11.50;82.50
72814;DHT22;60945;48.516;-2.768;2023-03-30T06:25:12;11.60;82.30
72814;DHT22;60945;48.516;-2.768;2023-03-30T06:27:38;11.60;82.20
72814;DHT22;60945;48.516;-2.768;2023-03-30T06:30:07;11.50;82.60
72814;DHT22;60945;48.516;-2.768;2023-03-30T06:32:36;11.50;82.90
72814;DHT22;60945;48.516;-2.768;2023-03-30T06:35:03;11.50;82.70
72814;DHT22;60945;48.516;-2.768;2023-03-30T06:37:33;11.60;82.70
72814;DHT22;60945;48.516;-2.768;2023-03-30T06:40:01;11.50;82.90
72814;DHT22;60945;48.516;-2.768;2023-03-30T06:42:32;11.50;83.10
72814;DHT22;60945;48.516;-2.768;2023-03-30T06:44:58;11.50;83.10
72814;DHT22;60945;48.516;-2.768;2023-03-30T06:47:24;11.50;83.10
72814;DHT22;60945;48.516;-2.768;2023-03-30T06:49:49;11.60;82.90
72814;DHT22;60945;48.516;-2.768;2023-03-30T06:52:15;11.80;82.20
72814;DHT22;60945;48.516;-2.768;2023-03-30T06:54:41;12.00;81.20
72814;DHT22;60945;48.516;-2.768;2023-03-30T06:57:08;12.20;80.70
72814;DHT22;60945;48.516;-2.768;2023-03-30T06:59:33;12.60;79.20
72814;DHT22;60945;48.516;-2.768;2023-03-30T07:01:59;12.60;80.30
72814;DHT22;60945;48.516;-2.768;2023-03-30T07:04:26;12.60;80.70
72814;DHT22;60945;48.516;-2.768;2023-03-30T07:06:52;12.50;81.60
72814;DHT22;60945;48.516;-2.768;2023-03-30T07:09:22;12.50;81.10
72814;DHT22;60945;48.516;-2.768;2023-03-30T07:11:49;12.40;80.70
72814;DHT22;60945;48.516;-2.768;2023-03-30T07:14:15;12.50;80.80
72814;DHT22;60945;48.516;-2.768;2023-03-30T07:16:40;12.60;79.80
72814;DHT22;60945;48.516;-2.768;2023-03-30T07:19:06;12.70;79.50
72814;DHT22;60945;48.516;-2.768;2023-03-30T07:21:33;12.70;80.50
72814;DHT22;60945;48.516;-2.768;2023-03-30T07:23:59;12.80;79.80
72814;DHT22;60945;48.516;-2.768;2023-03-30T07:26:28;12.80;80.00
72814;DHT22;60945;48.516;-2.768;2023-03-30T07:28:54;12.70;79.60
72814;DHT22;60945;48.516;-2.768;2023-03-30T07:31:23;12.90;80.00
72814;DHT22;60945;48.516;-2.768;2023-03-30T07:33:49;13.00;78.40
72814;DHT22;60945;48.516;-2.768;2023-03-30T07:36:16;13.10;79.10
72814;DHT22;60945;48.516;-2.768;2023-03-30T07:38:42;13.20;77.50
72814;DHT22;60945;48.516;-2.768;2023-03-30T07:41:12;13.10;77.00
72814;DHT22;60945;48.516;-2.768;2023-03-30T07:43:39;13.50;77.00
72814;DHT22;60945;48.516;-2.768;2023-03-30T07:46:06;13.90;74.70
72814;DHT22;60945;48.516;-2.768;2023-03-30T07:48:32;13.90;74.90
72814;DHT22;60945;48.516;-2.768;2023-03-30T07:51:06;14.00;73.60
72814;DHT22;60945;48.516;-2.768;2023-03-30T07:53:32;14.50;73.10
72814;DHT22;60945;48.516;-2.768;2023-03-30T07:55:58;14.60;71.20
72814;DHT22;60945;48.516;-2.768;2023-03-30T07:58:24;14.60;71.20
72814;DHT22;60945;48.516;-2.768;2023-03-30T08:00:51;14.60;71.50
72814;DHT22;60945;48.516;-2.768;2023-03-30T08:03:19;14.50;72.10
72814;DHT22;60945;48.516;-2.768;2023-03-30T08:08:18;14.30;73.10
72814;DHT22;60945;48.516;-2.768;2023-03-30T08:10:47;14.80;72.00
72814;DHT22;60945;48.516;-2.768;2023-03-30T08:13:17;15.10;69.00
72814;DHT22;60945;48.516;-2.768;2023-03-30T08:15:42;15.70;67.70
72814;DHT22;60945;48.516;-2.768;2023-03-30T08:18:09;16.00;66.10
72814;DHT22;60945;48.516;-2.768;2023-03-30T08:20:38;15.80;67.60
72814;DHT22;60945;48.516;-2.768;2023-03-30T08:23:10;15.60;67.00
72814;DHT22;60945;48.516;-2.768;2023-03-30T08:25:36;15.70;68.20
72814;DHT22;60945;48.516;-2.768;2023-03-30T08:28:03;16.40;65.30
72814;DHT22;60945;48.516;-2.768;2023-03-30T08:30:31;16.00;64.90
72814;DHT22;60945;48.516;-2.768;2023-03-30T08:33:00;16.10;65.70
72814;DHT22;60945;48.516;-2.768;2023-03-30T08:35:26;16.30;65.50
72814;DHT22;60945;48.516;-2.768;2023-03-30T08:37:52;16.80;63.70
72814;DHT22;60945;48.516;-2.768;2023-03-30T08:40:18;16.60;63.30
72814;DHT22;60945;48.516;-2.768;2023-03-30T08:43:44;16.80;64.30
72814;DHT22;60945;48.516;-2.768;2023-03-30T08:45:45;17.00;63.80
72814;DHT22;60945;48.516;-2.768;2023-03-30T08:48:33;17.00;61.70
72814;DHT22;60945;48.516;-2.768;2023-03-30T08:53:52;16.70;63.10
72814;DHT22;60945;48.516;-2.768;2023-03-30T08:56:23;17.50;60.40
72814;DHT22;60945;48.516;-2.768;2023-03-30T09:05:27;18.50;58.90
72814;DHT22;60945;48.516;-2.768;2023-03-30T09:07:38;18.30;57.60
72814;DHT22;60945;48.516;-2.768;2023-03-30T09:10:15;17.70;59.00
72814;DHT22;60945;48.516;-2.768;2023-03-30T09:12:51;17.90;59.40
72814;DHT22;60945;48.516;-2.768;2023-03-30T09:15:25;18.90;57.10
72814;DHT22;60945;48.516;-2.768;2023-03-30T09:17:58;19.20;55.10
72814;DHT22;60945;48.516;-2.768;2023-03-30T09:20:32;19.20;55.80
72814;DHT22;60945;48.516;-2.768;2023-03-30T09:22:58;19.70;55.20
72814;DHT22;60945;48.516;-2.768;2023-03-30T09:25:37;20.30;52.70
72814;DHT22;60945;48.516;-2.768;2023-03-30T09:31:00;20.40;51.30
72814;DHT22;60945;48.516;-2.768;2023-03-30T09:39:05;18.90;56.10
72814;DHT22;60945;48.516;-2.768;2023-03-30T09:42:02;19.20;54.40
72814;DHT22;60945;48.516;-2.768;2023-03-30T09:44:47;19.30;54.40
72814;DHT22;60945;48.516;-2.768;2023-03-30T09:47:32;20.90;50.80
72814;DHT22;60945;48.516;-2.768;2023-03-30T09:50:04;22.20;48.90
72814;DHT22;60945;48.516;-2.768;2023-03-30T09:52:32;23.60;43.40
72814;DHT22;60945;48.516;-2.768;2023-03-30T09:55:26;24.60;42.70
72814;DHT22;60945;48.516;-2.768;2023-03-30T09:57:52;24.40;41.50
72814;DHT22;60945;48.516;-2.768;2023-03-30T10:00:28;24.70;42.00
72814;DHT22;60945;48.516;-2.768;2023-03-30T10:03:00;27.50;37.80
72814;DHT22;60945;48.516;-2.768;2023-03-30T10:05:27;28.30;36.10
72814;DHT22;60945;48.516;-2.768;2023-03-30T10:07:55;29.00;34.00
72814;DHT22;60945;48.516;-2.768;2023-03-30T10:12:52;30.60;32.50
72814;DHT22;60945;48.516;-2.768;2023-03-30T10:15:21;30.20;30.80
72814;DHT22;60945;48.516;-2.768;2023-03-30T10:17:52;29.80;31.60
72814;DHT22;60945;48.516;-2.768;2023-03-30T10:20:27;28.60;33.20
72814;DHT22;60945;48.516;-2.768;2023-03-30T10:23:00;27.40;34.70
72814;DHT22;60945;48.516;-2.768;2023-03-30T10:25:28;29.40;33.40
72814;DHT22;60945;48.516;-2.768;2023-03-30T10:27:58;28.40;32.50
72814;DHT22;60945;48.516;-2.768;2023-03-30T10:30:26;26.80;34.80
72814;DHT22;60945;48.516;-2.768;2023-03-30T10:32:55;23.80;39.80
72814;DHT22;60945;48.516;-2.768;2023-03-30T10:35:29;22.30;42.50
72814;DHT22;60945;48.516;-2.768;2023-03-30T10:37:56;23.70;40.80
72814;DHT22;60945;48.516;-2.768;2023-03-30T10:40:26;25.00;39.00
72814;DHT22;60945;48.516;-2.768;2023-03-30T10:42:56;27.30;35.40
72814;DHT22;60945;48.516;-2.768;2023-03-30T10:45:38;28.10;33.30
72814;DHT22;60945;48.516;-2.768;2023-03-30T11:04:48;23.50;41.50
72814;DHT22;60945;48.516;-2.768;2023-03-30T11:09:59;21.80;44.00
72814;DHT22;60945;48.516;-2.768;2023-03-30T11:12:34;21.30;46.90
72814;DHT22;60945;48.516;-2.768;2023-03-30T11:21:32;20.40;49.00
72814;DHT22;60945;48.516;-2.768;2023-03-30T11:23:41;24.40;42.30
72814;DHT22;60945;48.516;-2.768;2023-03-30T11:26:19;26.60;37.70
72814;DHT22;60945;48.516;-2.768;2023-03-30T11:29:01;27.40;36.30
72814;DHT22;60945;48.516;-2.768;2023-03-30T11:36:47;22.40;45.50
72814;DHT22;60945;48.516;-2.768;2023-03-30T11:39:15;21.50;47.80
72814;DHT22;60945;48.516;-2.768;2023-03-30T11:42:03;20.10;50.90
72814;DHT22;60945;48.516;-2.768;2023-03-30T11:44:32;20.20;50.90
72814;DHT22;60945;48.516;-2.768;2023-03-30T11:50:31;19.40;52.30
72814;DHT22;60945;48.516;-2.768;2023-03-30T11:56:04;18.90;53.10
72814;DHT22;60945;48.516;-2.768;2023-03-30T11:58:38;19.10;53.30
72814;DHT22;60945;48.516;-2.768;2023-03-30T12:04:10;20.40;50.90
72814;DHT22;60945;48.516;-2.768;2023-03-30T12:09:32;20.50;52.30
72814;DHT22;60945;48.516;-2.768;2023-03-30T12:20:37;20.20;49.40
72814;DHT22;60945;48.516;-2.768;2023-03-30T12:23:20;20.80;48.30
72814;DHT22;60945;48.516;-2.768;2023-03-30T12:26:20;19.20;51.70
72814;DHT22;60945;48.516;-2.768;2023-03-30T12:29:13;20.20;50.10
72814;DHT22;60945;48.516;-2.768;2023-03-30T12:34:34;20.10;51.40
72814;DHT22;60945;48.516;-2.768;2023-03-30T12:37:03;21.40;48.10
72814;DHT22;60945;48.516;-2.768;2023-03-30T12:42:14;23.40;44.30
72814;DHT22;60945;48.516;-2.768;2023-03-30T12:47:56;21.80;45.80
72814;DHT22;60945;48.516;-2.768;2023-03-30T13:03:50;26.10;39.60
72814;DHT22;60945;48.516;-2.768;2023-03-30T13:24:44;20.60;46.80
72814;DHT22;60945;48.516;-2.768;2023-03-30T13:29:58;19.00;50.30
72814;DHT22;60945;48.516;-2.768;2023-03-30T13:46:37;19.80;49.40
72814;DHT22;60945;48.516;-2.768;2023-03-30T13:51:40;19.00;51.20
72814;DHT22;60945;48.516;-2.768;2023-03-30T13:56:40;18.30;52.90
72814;DHT22;60945;48.516;-2.768;2023-03-30T13:59:11;18.00;52.60
72814;DHT22;60945;48.516;-2.768;2023-03-30T14:01:39;17.80;53.30
72814;DHT22;60945;48.516;-2.768;2023-03-30T14:04:09;18.10;53.40
72814;DHT22;60945;48.516;-2.768;2023-03-30T14:06:41;18.80;52.30
72814;DHT22;60945;48.516;-2.768;2023-03-30T14:09:17;18.60;52.60
72814;DHT22;60945;48.516;-2.768;2023-03-30T14:11:44;18.20;53.30
72814;DHT22;60945;48.516;-2.768;2023-03-30T14:16:59;17.60;56.00
72814;DHT22;60945;48.516;-2.768;2023-03-30T14:19:36;17.80;55.60
72814;DHT22;60945;48.516;-2.768;2023-03-30T14:24:35;18.00;55.70
72814;DHT22;60945;48.516;-2.768;2023-03-30T14:27:12;17.60;56.40
72814;DHT22;60945;48.516;-2.768;2023-03-30T14:29:49;16.80;58.90
72814;DHT22;60945;48.516;-2.768;2023-03-30T14:32:17;17.30;57.60
72814;DHT22;60945;48.516;-2.768;2023-03-30T14:34:49;17.20;58.20
72814;DHT22;60945;48.516;-2.768;2023-03-30T14:37:16;16.70;60.20
72814;DHT22;60945;48.516;-2.768;2023-03-30T14:39:49;17.20;58.70
72814;DHT22;60945;48.516;-2.768;2023-03-30T14:42:17;17.00;59.10
72814;DHT22;60945;48.516;-2.768;2023-03-30T14:44:45;16.90;59.90
72814;DHT22;60945;48.516;-2.768;2023-03-30T14:47:15;17.00;58.60
72814;DHT22;60945;48.516;-2.768;2023-03-30T14:49:43;16.80;59.90
72814;DHT22;60945;48.516;-2.768;2023-03-30T14:52:16;16.70;60.50
72814;DHT22;60945;48.516;-2.768;2023-03-30T14:54:41;17.00;60.40
72814;DHT22;60945;48.516;-2.768;2023-03-30T14:57:10;16.90;62.20
72814;DHT22;60945;48.516;-2.768;2023-03-30T14:59:45;17.10;61.60
72814;DHT22;60945;48.516;-2.768;2023-03-30T15:02:51;17.20;61.70
72814;DHT22;60945;48.516;-2.768;2023-03-30T15:05:10;18.60;56.50
72814;DHT22;60945;48.516;-2.768;2023-03-30T15:07:36;17.80;58.10
72814;DHT22;60945;48.516;-2.768;2023-03-30T15:10:02;18.20;57.50
72814;DHT22;60945;48.516;-2.768;2023-03-30T15:12:34;18.30;57.10
72814;DHT22;60945;48.516;-2.768;2023-03-30T15:15:06;17.90;58.30
72814;DHT22;60945;48.516;-2.768;2023-03-30T15:17:33;18.40;57.30
72814;DHT22;60945;48.516;-2.768;2023-03-30T15:20:02;18.80;54.70
72814;DHT22;60945;48.516;-2.768;2023-03-30T15:22:36;19.10;55.10
72814;DHT22;60945;48.516;-2.768;2023-03-30T15:25:05;19.00;54.30
72814;DHT22;60945;48.516;-2.768;2023-03-30T15:27:33;18.40;54.60
72814;DHT22;60945;48.516;-2.768;2023-03-30T15:30:01;18.30;55.00
72814;DHT22;60945;48.516;-2.768;2023-03-30T15:32:33;18.20;56.00
72814;DHT22;60945;48.516;-2.768;2023-03-30T15:35:28;18.20;57.00
72814;DHT22;60945;48.516;-2.768;2023-03-30T15:40:41;16.90;59.20
72814;DHT22;60945;48.516;-2.768;2023-03-30T15:45:43;17.00;59.80
72814;DHT22;60945;48.516;-2.768;2023-03-30T15:48:11;17.30;59.10
72814;DHT22;60945;48.516;-2.768;2023-03-30T15:50:44;17.00;58.70
72814;DHT22;60945;48.516;-2.768;2023-03-30T15:53:18;16.50;59.20
72814;DHT22;60945;48.516;-2.768;2023-03-30T15:55:48;16.00;61.60
72814;DHT22;60945;48.516;-2.768;2023-03-30T15:58:19;16.20;60.60
72814;DHT22;60945;48.516;-2.768;2023-03-30T16:00:48;15.80;61.40
72814;DHT22;60945;48.516;-2.768;2023-03-30T16:03:30;15.60;62.40
72814;DHT22;60945;48.516;-2.768;2023-03-30T16:05:56;15.50;63.10
72814;DHT22;60945;48.516;-2.768;2023-03-30T16:08:22;15.50;63.50
72814;DHT22;60945;48.516;-2.768;2023-03-30T16:10:48;15.50;63.00
72814;DHT22;60945;48.516;-2.768;2023-03-30T16:13:13;15.10;63.70
72814;DHT22;60945;48.516;-2.768;2023-03-30T16:15:40;15.10;64.10
72814;DHT22;60945;48.516;-2.768;2023-03-30T16:18:06;15.30;64.60
72814;DHT22;60945;48.516;-2.768;2023-03-30T16:20:32;15.30;64.30
72814;DHT22;60945;48.516;-2.768;2023-03-30T16:22:58;15.00;65.60
72814;DHT22;60945;48.516;-2.768;2023-03-30T16:25:25;15.00;65.60
72814;DHT22;60945;48.516;-2.768;2023-03-30T16:27:52;15.00;66.20
72814;DHT22;60945;48.516;-2.768;2023-03-30T16:30:32;14.80;67.40
72814;DHT22;60945;48.516;-2.768;2023-03-30T16:32:59;14.50;69.10
72814;DHT22;60945;48.516;-2.768;2023-03-30T16:35:25;14.50;69.50
72814;DHT22;60945;48.516;-2.768;2023-03-30T16:37:51;14.50;69.50
72814;DHT22;60945;48.516;-2.768;2023-03-30T16:40:36;14.50;69.50
72814;DHT22;60945;48.516;-2.768;2023-03-30T16:43:03;14.50;69.40
72814;DHT22;60945;48.516;-2.768;2023-03-30T16:45:29;14.70;68.70
72814;DHT22;60945;48.516;-2.768;2023-03-30T16:47:54;14.80;69.00
72814;DHT22;60945;48.516;-2.768;2023-03-30T16:50:37;14.70;68.40
72814;DHT22;60945;48.516;-2.768;2023-03-30T16:53:05;14.60;69.30
72814;DHT22;60945;48.516;-2.768;2023-03-30T16:55:31;14.70;68.90
72814;DHT22;60945;48.516;-2.768;2023-03-30T16:57:57;14.90;68.40
72814;DHT22;60945;48.516;-2.768;2023-03-30T17:00:38;14.70;68.90
72814;DHT22;60945;48.516;-2.768;2023-03-30T17:03:05;14.80;69.20
72814;DHT22;60945;48.516;-2.768;2023-03-30T17:05:31;14.60;69.90
72814;DHT22;60945;48.516;-2.768;2023-03-30T17:08:02;14.50;70.60
72814;DHT22;60945;48.516;-2.768;2023-03-30T17:10:31;14.20;74.30
72814;DHT22;60945;48.516;-2.768;2023-03-30T17:12:58;14.00;77.30
72814;DHT22;60945;48.516;-2.768;2023-03-30T17:15:25;13.70;77.50
72814;DHT22;60945;48.516;-2.768;2023-03-30T17:17:51;13.50;77.90
72814;DHT22;60945;48.516;-2.768;2023-03-30T17:22:46;13.30;80.40
72814;DHT22;60945;48.516;-2.768;2023-03-30T17:25:12;13.40;77.20
72814;DHT22;60945;48.516;-2.768;2023-03-30T17:27:39;13.30;79.10
72814;DHT22;60945;48.516;-2.768;2023-03-30T17:30:15;13.10;78.90
72814;DHT22;60945;48.516;-2.768;2023-03-30T17:32:42;12.90;84.30
72814;DHT22;60945;48.516;-2.768;2023-03-30T17:35:08;12.70;86.40
72814;DHT22;60945;48.516;-2.768;2023-03-30T17:37:34;12.10;91.10
72814;DHT22;60945;48.516;-2.768;2023-03-30T17:40:04;11.70;94.40
72814;DHT22;60945;48.516;-2.768;2023-03-30T17:42:34;11.40;99.90
72814;DHT22;60945;48.516;-2.768;2023-03-30T17:45:00;11.40;99.90
72814;DHT22;60945;48.516;-2.768;2023-03-30T17:47:25;11.10;99.90
72814;DHT22;60945;48.516;-2.768;2023-03-30T17:49:51;11.10;99.90
72814;DHT22;60945;48.516;-2.768;2023-03-30T17:52:17;11.10;99.90
72814;DHT22;60945;48.516;-2.768;2023-03-30T17:54:43;11.10;99.90
72814;DHT22;60945;48.516;-2.768;2023-03-30T17:57:08;11.10;99.90
72814;DHT22;60945;48.516;-2.768;2023-03-30T17:59:34;11.00;99.90
72814;DHT22;60945;48.516;-2.768;2023-03-30T18:01:59;11.00;99.90
72814;DHT22;60945;48.516;-2.768;2023-03-30T18:04:25;11.00;99.90
72814;DHT22;60945;48.516;-2.768;2023-03-30T18:06:52;11.00;99.90
72814;DHT22;60945;48.516;-2.768;2023-03-30T18:09:17;11.00;99.90
72814;DHT22;60945;48.516;-2.768;2023-03-30T18:11:43;11.00;99.90
72814;DHT22;60945;48.516;-2.768;2023-03-30T18:14:09;10.80;99.90
72814;DHT22;60945;48.516;-2.768;2023-03-30T18:16:38;10.90;99.90
72814;DHT22;60945;48.516;-2.768;2023-03-30T18:19:08;11.00;99.90
72814;DHT22;60945;48.516;-2.768;2023-03-30T18:21:35;11.10;99.90
72814;DHT22;60945;48.516;-2.768;2023-03-30T18:24:00;11.00;99.90
72814;DHT22;60945;48.516;-2.768;2023-03-30T18:26:26;11.10;99.90
72814;DHT22;60945;48.516;-2.768;2023-03-30T18:28:52;11.10;99.90
72814;DHT22;60945;48.516;-2.768;2023-03-30T18:31:17;11.10;99.90
72814;DHT22;60945;48.516;-2.768;2023-03-30T18:33:43;11.00;99.90
72814;DHT22;60945;48.516;-2.768;2023-03-30T18:36:11;10.90;99.90
72814;DHT22;60945;48.516;-2.768;2023-03-30T18:38:37;10.90;99.90
72814;DHT22;60945;48.516;-2.768;2023-03-30T18:41:03;10.90;99.90
72814;DHT22;60945;48.516;-2.768;2023-03-30T18:43:29;10.80;99.90
72814;DHT22;60945;48.516;-2.768;2023-03-30T18:45:56;11.00;99.90
72814;DHT22;60945;48.516;-2.768;2023-03-30T18:48:22;11.00;99.90